Time;durP1;ratioP1;P1;durP2;ratioP2;P2;SDS_P1;SDS_P2;PMS_P1;PMS_P2;Temp;Humidity;BMP_temperature;BMP_pressure;BME280_temperature;BME280_humidity;BME280_pressure;Samples;Min_cycle;Max_cycle;Signal;HPM_P1;HPM_P2
2023/10/08 00:03:13;;;;;;;5.15;2.55;;;;;;;15.33;77.69;100669.50;6204852;23;20035;-89
2023/10/08 00:05:41;;;;;;;7.50;3.80;;;;;;;15.36;77.63;100674.56;6155772;23;20082;-88
2023/10/08 00:08:11;;;;;;;6.22;3.15;;;;;;;15.36;77.75;100671.03;6154945;23;20024;-86
2023/10/08 00:10:42;;;;;;;5.65;2.50;;;;;;;15.35;77.75;100672.88;6204786;23;20051;-87
2023/10/08 00:13:15;;;;;;;6.13;3.15;;;;;;;15.35;77.70;100678.25;6179297;23;20078;-87
2023/10/08 00:15:52;;;;;;;;;;;;;;;15.24;77.34;100680.22;6154352;23;20020;-87
2023/10/08 00:18:22;;;;;;;5.40;2.63;;;;;;;15.36;78.08;100681.75;6180240;23;19924;-87
2023/10/08 00:20:58;;;;;;;4.78;2.35;;;;;;;15.37;77.88;100683.47;6155028;23;20021;-88
2023/10/08 00:23:27;;;;;;;6.63;2.70;;;;;;;15.36;77.77;100682.59;6130566;23;20020;-87
2023/10/08 00:25:54;;;;;;;8.07;2.88;;;;;;;15.39;77.84;100678.78;6180554;23;20028;-87
2023/10/08 00:28:22;;;;;;;6.07;2.60;;;;;;;15.38;77.90;100672.59;6153822;23;20028;-88
2023/10/08 00:30:49;;;;;;;9.43;2.85;;;;;;;15.35;78.26;100667.53;6178896;23;20020;-88
2023/10/08 00:33:16;;;;;;;4.10;2.33;;;;;;;15.33;78.66;100669.50;6154981;23;20074;-87
2023/10/08 00:35:44;;;;;;;5.18;2.60;;;;;;;15.36;78.40;100681.75;6179514;23;20024;-88
2023/10/08 00:38:20;;;;;;;5.72;2.50;;;;;;;15.36;77.79;100677.22;6179013;23;20025;-87
2023/10/08 00:40:50;;;;;;;9.10;3.50;;;;;;;15.40;77.74;100672.44;6180788;23;20044;-87
2023/10/08 00:43:34;;;;;;;5.28;2.60;;;;;;;15.36;77.16;100668.38;6154489;23;20495;-87
2023/10/08 00:46:17;;;;;;;7.78;2.78;;;;;;;15.42;77.43;100673.16;6154338;23;20031;-87
2023/10/08 00:48:45;;;;;;;8.48;2.78;;;;;;;15.44;77.57;100667.63;6178674;23;20031;-87
2023/10/08 00:53:58;;;;;;;6.97;3.17;;;;;;;15.40;77.43;100664.44;6156333;23;20051;-87
2023/10/08 00:56:46;;;;;;;6.13;2.42;;;;;;;15.44;77.83;100670.31;6179362;23;20043;-88
2023/10/08 00:59:16;;;;;;;5.53;2.60;;;;;;;15.39;77.89;100666.25;6177922;23;20352;-88
2023/10/08 01:01:47;;;;;;;6.03;2.75;;;;;;;15.39;77.88;100666.25;6154847;23;20028;-87
2023/10/08 01:04:35;;;;;;;5.75;3.17;;;;;;;15.35;77.25;100659.50;6154275;23;20091;-86
2023/10/08 01:07:16;;;;;;;6.38;2.95;;;;;;;15.42;77.53;100662.44;6154231;23;20024;-87
2023/10/08 01:09:47;;;;;;;10.45;2.88;;;;;;;15.45;77.64;100669.34;6157820;23;20464;-87
2023/10/08 01:12:23;;;;;;;6.13;2.72;;;;;;;15.44;77.37;100656.94;6155476;23;20058;-87
2023/10/08 01:14:53;;;;;;;4.75;2.40;;;;;;;15.46;77.40;100663.00;6155337;23;20036;-88
2023/10/08 01:17:32;;;;;;;7.63;2.67;;;;;;;15.47;77.34;100667.34;6154902;23;20016;-87
2023/10/08 01:20:20;;;;;;;5.97;3.00;;;;;;;15.46;77.22;100663.81;6154012;23;20032;-88
2023/10/08 01:22:48;;;;;;;7.13;2.63;;;;;;;15.48;76.92;100667.19;6159351;23;20017;-87
2023/10/08 01:25:22;;;;;;;5.47;2.53;;;;;;;15.51;76.87;100668.75;6154083;23;20103;-87
2023/10/08 01:27:50;;;;;;;8.63;2.95;;;;;;;15.48;77.05;100663.69;6203609;23;20029;-87
2023/10/08 01:30:20;;;;;;;5.55;2.88;;;;;;;15.49;76.88;100662.69;6205184;23;20020;-88
2023/10/08 01:32:47;;;;;;;5.97;2.60;;;;;;;15.45;77.21;100654.13;6178733;23;20780;-88
2023/10/08 01:35:23;;;;;;;7.53;2.72;;;;;;;15.49;77.28;100665.34;6154451;23;20021;-87
2023/10/08 01:37:50;;;;;;;7.85;2.75;;;;;;;15.47;77.34;100670.00;6132187;23;20016;-88
2023/10/08 01:40:20;;;;;;;6.70;2.78;;;;;;;15.46;77.71;100674.53;6153711;23;20119;-87
2023/10/08 01:42:51;;;;;;;5.38;2.85;;;;;;;15.44;77.56;100665.78;6153133;23;20028;-86
2023/10/08 01:45:18;;;;;;;7.60;2.88;;;;;;;15.43;77.87;100668.63;6153284;23;20028;-88
2023/10/08 01:47:50;;;;;;;6.47;3.10;;;;;;;15.43;77.61;100656.09;6154074;23;20072;-89
2023/10/08 01:50:29;;;;;;;10.80;2.80;;;;;;;15.43;77.73;100661.44;6179457;23;20082;-88
2023/10/08 01:52:56;;;;;;;6.07;3.00;;;;;;;15.43;77.85;100656.09;6132159;23;20092;-88
2023/10/08 01:55:23;;;;;;;6.43;2.67;;;;;;;15.40;77.87;100664.44;6179169;23;20095;-88
2023/10/08 01:57:53;;;;;;;5.00;2.83;;;;;;;15.40;78.05;100651.88;6177875;23;20461;-88
2023/10/08 02:00:20;;;;;;;9.60;3.63;;;;;;;15.39;78.07;100662.72;6178913;23;20103;-89
2023/10/08 02:02:50;;;;;;;8.35;3.20;;;;;;;15.40;77.95;100659.91;6154123;23;20029;-89
2023/10/08 02:05:18;;;;;;;6.63;3.10;;;;;;;15.38;78.29;100655.69;6154323;23;20028;-87
2023/10/08 02:07:46;;;;;;;9.10;3.22;;;;;;;15.38;78.18;100667.22;6128687;23;20021;-88
2023/10/08 02:10:14;;;;;;;5.53;2.88;;;;;;;15.39;77.95;100660.91;6153507;23;20637;-87
2023/10/08 02:12:41;;;;;;;7.65;3.63;;;;;;;15.40;77.96;100656.41;6153216;23;20017;-88
2023/10/08 02:15:11;;;;;;;6.30;2.75;;;;;;;15.37;78.13;100662.88;6177009;23;20159;-87
2023/10/08 02:17:38;;;;;;;6.00;3.05;;;;;;;15.35;78.48;100658.66;6202917;23;20032;-87
2023/10/08 02:20:06;;;;;;;6.90;3.08;;;;;;;15.32;78.60;100657.13;6177731;23;20299;-87
2023/10/08 02:22:33;;;;;;;6.70;3.10;;;;;;;15.33;78.55;100656.13;6153274;23;20020;-87
2023/10/08 02:25:02;;;;;;;5.70;2.80;;;;;;;15.31;78.63;100650.06;6153937;23;20035;-87
2023/10/08 02:27:29;;;;;;;7.80;3.00;;;;;;;15.28;78.61;100650.38;6177981;23;20017;-86
2023/10/08 02:29:56;;;;;;;6.30;3.13;;;;;;;15.27;78.80;100655.88;6203557;23;20027;-86
2023/10/08 02:32:23;;;;;;;7.38;3.35;;;;;;;15.27;78.90;100654.03;6153543;23;20032;-86
2023/10/08 02:34:50;;;;;;;8.38;3.38;;;;;;;15.24;79.25;100654.34;6177752;23;20016;-87
2023/10/08 02:37:19;;;;;;;5.07;2.72;;;;;;;15.22;78.93;100666.19;6152486;23;20021;-87
2023/10/08 02:39:46;;;;;;;5.78;2.50;;;;;;;15.19;79.16;100661.97;6178303;23;20028;-87
2023/10/08 02:42:14;;;;;;;6.38;3.60;;;;;;;15.16;79.08;100663.09;6178591;23;20024;-88
2023/10/08 02:44:44;;;;;;;5.60;2.88;;;;;;;15.16;79.25;100670.25;6179160;23;20021;-88
2023/10/08 02:47:11;;;;;;;7.63;3.53;;;;;;;15.17;79.44;100669.28;6179087;23;20491;-87
2023/10/08 02:49:42;;;;;;;6.13;3.35;;;;;;;15.13;79.44;100671.38;6154338;23;20089;-87
2023/10/08 02:52:09;;;;;;;6.72;2.85;;;;;;;15.12;79.32;100666.19;6178958;23;20456;-88
2023/10/08 02:54:36;;;;;;;7.32;3.15;;;;;;;15.11;79.57;100669.84;6152602;23;20468;-90
2023/10/08 02:57:04;;;;;;;7.00;3.30;;;;;;;15.10;79.48;100673.53;6177714;23;20459;-87
2023/10/08 02:59:41;;;;;;;8.95;3.17;;;;;;;15.08;79.16;100675.50;6202029;23;20025;-87
2023/10/08 03:02:21;;;;;;;5.78;3.42;;;;;;;15.10;78.80;100673.53;6154627;23;20607;-87
2023/10/08 03:04:52;;;;;;;5.55;3.03;;;;;;;15.07;79.18;100677.34;6152875;23;20024;-91
2023/10/08 03:07:32;;;;;;;14.73;4.35;;;;;;;15.06;79.27;100680.13;6178254;23;20035;-88
2023/10/08 03:10:03;;;;;;;7.45;3.22;;;;;;;15.02;79.42;100684.94;6132366;23;20024;-87
2023/10/08 03:12:32;;;;;;;7.00;3.03;;;;;;;15.01;79.34;100693.09;6155037;23;20392;-88
2023/10/08 03:17:48;;;;;;;6.32;2.75;;;;;;;14.96;79.50;100689.03;6202772;23;20016;-87
2023/10/08 03:20:29;;;;;;;5.72;3.17;;;;;;;14.98;79.28;100683.53;6154360;23;20036;-88
2023/10/08 03:22:57;;;;;;;4.68;2.75;;;;;;;14.98;79.33;100691.56;6178628;23;20023;-87
2023/10/08 03:25:24;;;;;;;11.73;3.45;;;;;;;14.98;79.04;100691.56;6156086;23;20023;-88
2023/10/08 03:27:54;;;;;;;5.78;2.85;;;;;;;15.01;78.58;100693.97;6156617;23;20021;-87
2023/10/08 03:30:21;;;;;;;6.38;3.13;;;;;;;14.98;78.65;100676.38;6131911;23;20024;-87
2023/10/08 03:32:55;;;;;;;6.63;2.60;;;;;;;14.98;78.52;100673.69;6180513;23;20021;-86
2023/10/08 03:35:33;;;;;;;9.18;3.58;;;;;;;14.96;78.69;100666.81;6156180;23;20087;-88
2023/10/08 03:38:19;;;;;;;6.90;3.63;;;;;;;15.00;78.09;100678.06;6182096;23;20018;-88
2023/10/08 03:40:48;;;;;;;6.95;2.97;;;;;;;14.97;78.27;100668.47;6131814;23;20108;-89
2023/10/08 03:43:33;;;;;;;9.95;3.70;;;;;;;14.98;78.06;100678.19;6155835;23;20096;-89
2023/10/08 03:46:05;;;;;;;5.70;3.08;;;;;;;14.98;78.07;100672.84;6159215;23;20016;-89
2023/10/08 03:48:36;;;;;;;10.27;3.28;;;;;;;14.95;78.29;100678.47;6155424;23;20143;-88
2023/10/08 03:51:06;;;;;;;9.15;2.80;;;;;;;14.94;78.17;100690.19;6155543;23;20031;-88
2023/10/08 03:53:42;;;;;;;6.18;3.05;;;;;;;14.96;77.77;100697.06;6180295;23;20016;-88
2023/10/08 03:56:09;;;;;;;6.07;3.20;;;;;;;14.95;77.56;100690.00;6207163;23;20020;-87
2023/10/08 03:58:41;;;;;;;9.20;3.53;;;;;;;14.97;77.31;100696.06;6180228;23;20330;-87
2023/10/08 04:01:09;;;;;;;4.57;2.85;;;;;;;14.94;77.61;100693.69;6203552;23;20028;-87
2023/10/08 04:03:57;;;;;;;8.93;3.08;;;;;;;14.93;77.75;100708.06;6155271;23;20091;-87
2023/10/08 04:06:31;;;;;;;6.10;2.92;;;;;;;14.88;77.71;100706.78;6183109;23;20048;-88
2023/10/08 04:11:36;;;;;;;5.63;2.88;;;;;;;14.83;78.06;100711.69;6155779;23;20299;-89
2023/10/08 04:14:08;;;;;;;5.60;2.70;;;;;;;14.85;77.99;100720.44;6155203;23;20031;-88
2023/10/08 04:16:37;;;;;;;7.75;2.85;;;;;;;14.83;77.69;100723.22;6154989;23;20126;-87
2023/10/08 04:19:04;;;;;;;11.20;3.42;;;;;;;14.82;77.93;100724.22;6178790;23;20453;-88
2023/10/08 04:21:33;;;;;;;5.97;3.33;;;;;;;14.83;77.79;100720.56;6178716;23;20040;-87
2023/10/08 04:24:03;;;;;;;11.00;3.30;;;;;;;14.80;77.73;100720.00;6179181;23;20050;-88
2023/10/08 04:26:31;;;;;;;8.32;3.42;;;;;;;14.74;78.02;100714.25;6155397;23;20088;-87
2023/10/08 04:29:02;;;;;;;9.88;3.95;;;;;;;14.74;78.03;100722.25;6178829;23;20456;-88
2023/10/08 04:31:36;;;;;;;7.47;3.05;;;;;;;14.73;78.07;100730.41;6155366;23;20131;-88
2023/10/08 04:34:15;;;;;;;8.38;3.00;;;;;;;14.73;77.98;100728.59;6153020;23;20556;-88
2023/10/08 04:36:46;;;;;;;5.72;3.17;;;;;;;14.68;78.22;100733.53;6177895;23;20032;-88
2023/10/08 04:39:21;;;;;;;7.95;3.40;;;;;;;14.69;77.82;100737.03;6154477;23;20029;-88
2023/10/08 04:41:53;;;;;;;7.53;3.25;;;;;;;14.73;78.07;100741.97;6156065;23;20028;-90
2023/10/08 04:44:21;;;;;;;7.97;3.80;;;;;;;14.69;77.92;100743.22;6153761;23;20468;-88
2023/10/08 04:46:52;;;;;;;7.13;2.67;;;;;;;14.70;77.93;100738.72;6180082;23;20040;-88
2023/10/08 04:52:05;;;;;;;9.73;4.03;;;;;;;14.57;78.04;100722.13;6178675;23;20021;-87
2023/10/08 04:54:32;;;;;;;6.90;3.25;;;;;;;14.55;78.33;100722.25;6179372;23;20111;-88
2023/10/08 04:57:00;;;;;;;9.30;3.88;;;;;;;14.51;78.59;100721.66;6155509;23;20020;-88
2023/10/08 04:59:35;;;;;;;6.10;3.38;;;;;;;14.50;78.51;100716.44;6131120;23;20514;-87
2023/10/08 05:07:21;;;;;;;10.40;3.47;;;;;;;14.50;78.44;100716.44;6178548;23;20027;-88
2023/10/08 05:10:11;;;;;;;5.93;3.20;;;;;;;14.51;78.28;100719.00;6155792;23;20025;-87
2023/10/08 05:12:45;;;;;;;11.15;3.72;;;;;;;14.51;78.66;100716.31;6183842;23;20039;-88
2023/10/08 05:20:58;;;;;;;6.75;3.53;;;;;;;14.49;78.52;100710.25;6203541;23;20330;-87
2023/10/08 05:23:21;;;;;;;7.00;3.17;;;;;;;14.48;78.69;100708.59;6202834;23;20028;-88
2023/10/08 05:28:36;;;;;;;8.88;4.15;;;;;;;14.49;78.71;100704.91;6204502;23;20762;-87
2023/10/08 05:36:34;;;;;;;9.52;3.85;;;;;;;14.46;79.45;100702.53;6203650;23;20028;-88
2023/10/08 05:39:19;;;;;;;6.88;3.33;;;;;;;14.42;79.37;100701.09;6203225;23;20384;-87
2023/10/08 05:41:54;;;;;;;6.82;3.53;;;;;;;14.41;79.85;100707.44;6181992;23;20017;-88
2023/10/08 05:47:06;;;;;;;7.20;3.00;;;;;;;14.40;79.23;100705.78;6178194;23;20016;-88
2023/10/08 06:07:48;;;;;;;6.22;3.65;;;;;;;14.40;80.84;100731.63;6203057;23;20024;-87
2023/10/08 06:13:16;;;;;;;10.10;3.53;;;;;;;14.45;80.74;100742.75;6177770;23;20025;-87
2023/10/08 06:15:48;;;;;;;5.63;3.15;;;;;;;14.47;81.17;100735.44;6154566;23;20067;-87
2023/10/08 06:18:17;;;;;;;6.78;3.20;;;;;;;14.45;81.31;100745.41;6152883;23;20044;-88
2023/10/08 06:20:49;;;;;;;7.20;3.60;;;;;;;14.47;81.75;100746.97;6201967;23;20476;-88
2023/10/08 06:23:20;;;;;;;7.40;3.60;;;;;;;14.51;81.21;100748.38;6177740;23;20388;-88
2023/10/08 06:25:54;;;;;;;11.07;3.72;;;;;;;14.52;81.17;100747.38;6177448;23;20024;-88
2023/10/08 06:28:21;;;;;;;8.43;3.92;;;;;;;14.56;81.07;100752.53;6177720;23;20057;-88
2023/10/08 06:30:49;;;;;;;8.32;4.20;;;;;;;14.57;81.75;100748.84;6178402;23;20023;-89
2023/10/08 06:33:16;;;;;;;8.75;3.65;;;;;;;14.58;81.80;100742.50;6153451;23;20487;-88
2023/10/08 06:35:44;;;;;;;9.98;4.35;;;;;;;14.64;81.84;100744.63;6202891;23;20092;-88
2023/10/08 06:38:14;;;;;;;13.40;6.63;;;;;;;14.66;81.72;100756.03;6177568;23;20361;-88
2023/10/08 06:40:42;;;;;;;7.80;4.78;;;;;;;14.67;81.12;100752.38;6177557;23;20032;-92
2023/10/08 06:43:24;;;;;;;10.30;4.88;;;;;;;14.67;80.61;100758.56;6153851;23;20025;-87
2023/10/08 06:45:57;;;;;;;7.72;4.30;;;;;;;14.69;80.95;100753.91;6202316;23;22637;-89
2023/10/08 06:48:25;;;;;;;8.75;4.70;;;;;;;14.71;81.11;100751.13;6179194;23;20576;-89
2023/10/08 06:51:07;;;;;;;9.35;4.07;;;;;;;14.74;81.21;100750.84;6179074;23;20475;-88
2023/10/08 06:53:34;;;;;;;8.45;4.30;;;;;;;14.74;81.44;100759.69;6202612;23;20384;-88
2023/10/08 06:56:04;;;;;;;7.35;4.07;;;;;;;14.75;81.64;100753.34;6202331;23;20052;-87
2023/10/08 06:58:34;;;;;;;7.88;4.63;;;;;;;14.77;81.70;100758.56;6154955;23;20031;-88
2023/10/08 07:01:04;;;;;;;6.15;3.70;;;;;;;14.76;81.84;100757.72;6180248;23;20079;-88
2023/10/08 07:03:33;;;;;;;11.50;4.53;;;;;;;14.75;81.51;100749.84;6155400;23;20030;-87
2023/10/08 07:06:02;;;;;;;8.88;4.65;;;;;;;14.77;81.73;100743.38;6205746;23;20017;-88
2023/10/08 07:08:31;;;;;;;8.73;4.63;;;;;;;14.84;81.59;100753.50;6180077;23;20017;-88
2023/10/08 07:11:11;;;;;;;9.25;4.82;;;;;;;14.84;81.70;100767.72;6156273;23;20023;-88
2023/10/08 07:13:42;;;;;;;7.47;3.90;;;;;;;14.86;81.68;100779.13;6156556;23;20020;-90
2023/10/08 07:16:11;;;;;;;6.28;3.50;;;;;;;14.89;81.11;100775.34;6179242;23;20083;-87
2023/10/08 07:18:39;;;;;;;7.07;3.65;;;;;;;14.94;80.88;100771.25;6154059;23;20039;-91
2023/10/08 07:21:12;;;;;;;7.63;3.60;;;;;;;14.98;80.75;100772.66;6155573;23;20012;-88
2023/10/08 07:24:01;;;;;;;7.53;3.35;;;;;;;15.04;80.79;100762.38;6179917;23;20021;-87
2023/10/08 07:26:35;;;;;;;7.32;4.28;;;;;;;15.07;80.47;100773.63;6183798;23;20016;-87
2023/10/08 07:29:09;;;;;;;9.38;4.55;;;;;;;15.10;80.02;100777.84;6156755;23;20020;-88
2023/10/08 07:31:37;;;;;;;11.52;4.20;;;;;;;15.15;79.77;100802.34;6179992;23;20021;-88
2023/10/08 07:34:25;;;;;;;7.25;3.25;;;;;;;15.14;79.35;100814.03;6202826;23;20072;-88
2023/10/08 07:36:54;;;;;;;7.03;3.38;;;;;;;15.13;79.17;100828.38;6157937;23;20024;-87
2023/10/08 07:42:01;;;;;;;8.20;3.30;;;;;;;15.20;78.42;100838.38;6205828;23;20021;-87
2023/10/08 07:44:28;;;;;;;7.25;3.45;;;;;;;15.28;78.43;100855.56;6178570;23;20020;-88
2023/10/08 07:46:55;;;;;;;7.85;3.50;;;;;;;15.32;78.76;100860.50;6179027;23;20023;-88
2023/10/08 07:49:30;;;;;;;10.05;4.03;;;;;;;15.38;78.03;100857.25;6154047;23;20522;-88
2023/10/08 07:51:59;;;;;;;9.90;3.33;;;;;;;15.43;77.45;100843.44;6203292;23;20020;-87
2023/10/08 07:54:29;;;;;;;5.65;3.05;;;;;;;15.47;77.43;100822.56;6155778;23;20032;-88
2023/10/08 07:57:08;;;;;;;5.75;3.22;;;;;;;15.49;77.64;100834.00;6205732;23;20441;-87
2023/10/08 07:59:41;;;;;;;8.00;3.40;;;;;;;15.52;77.59;100833.69;6182275;23;20028;-87
2023/10/08 08:02:12;;;;;;;9.77;4.13;;;;;;;15.56;77.56;100827.09;6205020;23;20526;-88
2023/10/08 08:04:40;;;;;;;7.68;3.72;;;;;;;15.56;77.62;100816.38;6179878;23;20029;-86
2023/10/08 08:07:07;;;;;;;9.57;4.35;;;;;;;15.60;77.74;100826.66;6205192;23;20149;-87
2023/10/08 08:09:44;;;;;;;6.75;3.28;;;;;;;15.61;77.28;100822.16;6179144;23;20029;-87
2023/10/08 08:12:15;;;;;;;7.18;3.63;;;;;;;15.63;77.19;100829.03;6134102;23;20008;-87
2023/10/08 08:14:42;;;;;;;7.90;3.45;;;;;;;15.67;77.20;100834.94;6178652;23;20388;-87
2023/10/08 08:17:14;;;;;;;8.18;4.00;;;;;;;15.70;76.86;100828.47;6155164;23;20024;-88
2023/10/08 08:19:44;;;;;;;7.45;3.25;;;;;;;15.74;77.19;100814.66;6178839;23;20348;-87
2023/10/08 08:22:15;;;;;;;7.95;3.75;;;;;;;15.79;77.01;100825.78;6178808;23;20021;-88
2023/10/08 08:24:45;;;;;;;9.82;3.45;;;;;;;15.82;77.21;100825.53;6203796;23;20609;-89
2023/10/08 08:27:23;;;;;;;7.22;3.60;;;;;;;15.88;77.21;100831.28;6129247;23;20282;-86
2023/10/08 08:29:55;;;;;;;8.70;3.55;;;;;;;15.92;77.01;100838.84;6157708;23;20055;-87
2023/10/08 08:32:23;;;;;;;9.55;3.97;;;;;;;15.96;76.92;100842.94;6155010;23;20024;-87
2023/10/08 08:34:50;;;;;;;9.23;3.42;;;;;;;16.01;76.90;100847.88;6153935;23;20099;-86
2023/10/08 08:37:17;;;;;;;8.50;3.58;;;;;;;16.04;76.68;100845.72;6178566;23;20029;-87
2023/10/08 08:39:45;;;;;;;6.47;3.38;;;;;;;16.08;76.88;100845.44;6179569;23;20089;-87
2023/10/08 08:42:14;;;;;;;9.55;3.53;;;;;;;16.08;76.77;100846.31;6180250;23;20453;-87
2023/10/08 08:44:46;;;;;;;10.45;4.25;;;;;;;16.12;76.36;100847.69;6154424;23;20029;-86
2023/10/08 08:47:19;;;;;;;7.22;3.35;;;;;;;16.13;76.72;100843.16;6153951;23;20032;-87
2023/10/08 08:49:50;;;;;;;7.60;3.25;;;;;;;16.14;76.98;100829.63;6155683;23;20322;-88
2023/10/08 08:52:17;;;;;;;8.25;3.53;;;;;;;16.19;76.78;100834.53;6155394;23;20409;-87
2023/10/08 08:54:44;;;;;;;7.05;3.30;;;;;;;16.15;76.64;100825.94;6205171;23;20078;-88
2023/10/08 08:57:14;;;;;;;10.70;4.15;;;;;;;16.19;76.51;100832.69;6178402;23;20020;-89
2023/10/08 08:59:52;;;;;;;6.63;3.05;;;;;;;16.18;76.47;100831.03;6179006;23;20669;-88
2023/10/08 09:02:19;;;;;;;6.00;3.47;;;;;;;16.21;76.49;100822.69;6177614;23;20025;-87
2023/10/08 09:04:48;;;;;;;7.63;3.55;;;;;;;16.21;76.06;100828.03;6178920;23;20031;-89
2023/10/08 09:07:21;;;;;;;7.80;3.40;;;;;;;16.21;75.94;100835.25;6204344;23;20023;-89
2023/10/08 09:09:49;;;;;;;8.48;3.63;;;;;;;16.19;76.21;100834.53;6204672;23;20025;-88
2023/10/08 09:12:17;;;;;;;8.57;3.63;;;;;;;16.23;76.39;100841.28;6205176;23;20022;-87
2023/10/08 09:14:47;;;;;;;6.85;3.33;;;;;;;16.22;76.47;100856.53;6155651;23;20016;-88
2023/10/08 09:17:16;;;;;;;5.38;3.63;;;;;;;16.21;76.48;100851.31;6180906;23;20030;-88
2023/10/08 09:19:43;;;;;;;7.82;3.92;;;;;;;16.24;76.46;100854.53;6131437;23;20078;-88
2023/10/08 09:22:11;;;;;;;13.10;6.38;;;;;;;16.24;76.34;100838.47;6204902;23;20352;-90
2023/10/08 09:24:40;;;;;;;8.52;4.35;;;;;;;16.30;76.22;100844.22;6155552;23;20020;-89
2023/10/08 09:27:09;;;;;;;12.02;3.60;;;;;;;16.29;76.05;100859.47;6179883;23;20029;-89
2023/10/08 09:29:42;;;;;;;6.53;3.40;;;;;;;16.32;76.00;100847.59;6154654;23;20016;-88
2023/10/08 09:32:46;;;;;;;9.35;4.18;;;;;;;16.32;75.76;100844.94;6156656;23;20027;-88
2023/10/08 09:35:07;;;;;;;8.65;4.43;;;;;;;16.34;76.18;100845.63;6181325;23;20048;-87
2023/10/08 09:37:34;;;;;;;8.40;4.10;;;;;;;16.34;76.03;100849.16;6179494;23;20016;-87
2023/10/08 09:40:08;;;;;;;7.78;3.70;;;;;;;16.35;75.99;100855.34;6179402;23;20024;-87
2023/10/08 09:42:37;;;;;;;11.45;4.65;;;;;;;16.37;76.02;100848.84;6180594;23;20457;-88
2023/10/08 09:45:08;;;;;;;7.55;3.90;;;;;;;16.40;76.14;100839.66;6154839;23;20392;-87
2023/10/08 09:47:38;;;;;;;7.47;3.63;;;;;;;16.41;76.04;100838.66;6179688;23;20032;-87
2023/10/08 09:50:11;;;;;;;8.48;3.47;;;;;;;16.42;76.09;100846.56;6129844;23;20475;-88
2023/10/08 09:53:06;;;;;;;7.25;3.78;;;;;;;16.43;75.75;100834.84;6154538;23;20028;-88
2023/10/08 09:55:33;;;;;;;8.27;4.00;;;;;;;16.46;76.33;100837.25;6179226;23;20044;-88
2023/10/08 09:58:00;;;;;;;7.53;3.80;;;;;;;16.49;76.07;100839.63;6178391;23;20032;-88
2023/10/08 10:00:31;;;;;;;9.25;4.18;;;;;;;16.50;75.85;100840.44;6204667;23;20074;-88
2023/10/08 10:03:01;;;;;;;8.80;4.05;;;;;;;16.54;75.90;100839.16;6180774;23;20028;-87
2023/10/08 10:05:35;;;;;;;6.93;3.47;;;;;;;16.58;75.83;100823.63;6204155;23;20341;-88
2023/10/08 10:08:05;;;;;;;8.30;3.70;;;;;;;16.60;75.86;100830.50;6155669;23;20096;-87
2023/10/08 10:10:38;;;;;;;6.50;3.25;;;;;;;16.62;75.87;100838.41;6179998;23;20035;-88
2023/10/08 10:13:08;;;;;;;8.23;3.70;;;;;;;16.66;76.29;100840.66;6156588;23;20052;-88
2023/10/08 10:15:42;;;;;;;7.95;3.78;;;;;;;16.70;76.40;100835.81;6179971;23;20036;-88
2023/10/08 10:18:14;;;;;;;7.32;3.50;;;;;;;16.76;76.28;100853.97;6131332;23;20059;-87
2023/10/08 10:20:45;;;;;;;5.63;4.00;;;;;;;16.80;76.04;100850.03;6205205;23;20441;-87
2023/10/08 10:23:40;;;;;;;7.95;3.80;;;;;;;16.77;75.63;100853.00;6204680;23;20396;-88
2023/10/08 10:26:31;;;;;;;9.23;3.58;;;;;;;16.81;75.96;100859.75;6203903;23;20020;-87
2023/10/08 10:29:07;;;;;;;6.28;3.58;;;;;;;16.84;75.84;100861.31;6206391;23;20016;-87
2023/10/08 10:31:37;;;;;;;8.00;3.95;;;;;;;16.90;76.22;100858.88;6179837;23;20025;-87
2023/10/08 10:34:12;;;;;;;7.47;3.58;;;;;;;16.91;76.02;100865.91;6204161;23;20083;-87
2023/10/08 10:36:43;;;;;;;6.82;3.92;;;;;;;16.91;76.12;100857.88;6179399;23;20103;-87
2023/10/08 10:39:16;;;;;;;8.90;3.63;;;;;;;16.94;75.82;100862.06;6155141;23;20594;-87
2023/10/08 10:41:48;;;;;;;9.52;3.83;;;;;;;16.92;75.37;100859.56;6179735;23;20393;-87
2023/10/08 10:44:15;;;;;;;7.87;3.97;;;;;;;16.95;75.26;100861.09;6179374;23;20483;-87
2023/10/08 10:46:50;;;;;;;10.68;3.85;;;;;;;16.98;75.53;100868.84;6179154;23;20020;-87
2023/10/08 10:49:36;;;;;;;7.53;4.38;;;;;;;16.99;75.56;100850.91;6156095;23;20017;-88
2023/10/08 10:52:05;;;;;;;7.47;3.53;;;;;;;17.03;76.28;100850.44;6154155;23;20095;-87
2023/10/08 10:54:36;;;;;;;10.15;3.72;;;;;;;17.07;76.50;100842.91;6178555;23;20024;-87
2023/10/08 10:57:03;;;;;;;8.90;4.05;;;;;;;17.11;76.45;100838.94;6180349;23;20016;-86
2023/10/08 10:59:39;;;;;;;8.88;3.55;;;;;;;17.12;76.09;100829.88;6181025;23;20016;-87
2023/10/08 11:02:30;;;;;;;11.38;3.90;;;;;;;17.13;76.21;100820.84;6180910;23;20045;-87
2023/10/08 11:05:08;;;;;;;7.15;3.63;;;;;;;17.20;76.05;100823.75;6179091;23;20020;-87
2023/10/08 11:07:35;;;;;;;9.77;5.05;;;;;;;17.25;75.68;100821.44;6156231;23;20037;-88
2023/10/08 11:10:06;;;;;;;8.55;3.70;;;;;;;17.27;75.29;100809.56;6205586;23;20441;-87
2023/10/08 11:12:42;;;;;;;9.23;3.70;;;;;;;17.32;75.20;100809.91;6155930;23;20047;-88
2023/10/08 11:15:15;;;;;;;8.55;3.75;;;;;;;17.36;74.75;100802.41;6156458;23;20333;-87
2023/10/08 11:17:43;;;;;;;8.88;4.05;;;;;;;17.41;74.23;100804.63;6205304;23;20336;-88
2023/10/08 11:20:26;;;;;;;10.95;4.63;;;;;;;17.36;74.33;100807.78;6155351;23;20025;-87
2023/10/08 11:23:17;;;;;;;10.30;4.10;;;;;;;17.46;74.04;100807.69;6206945;23;20040;-88
2023/10/08 11:26:02;;;;;;;9.18;4.00;;;;;;;17.43;74.02;100802.63;6203952;23;20017;-87
2023/10/08 11:28:34;;;;;;;9.55;3.65;;;;;;;17.48;74.37;100819.97;6203947;23;20540;-87
2023/10/08 11:31:10;;;;;;;5.82;3.25;;;;;;;17.49;74.40;100810.06;6179905;23;20378;-87
2023/10/08 11:33:38;;;;;;;6.18;3.40;;;;;;;17.54;74.12;100826.56;6205030;23;20043;-88
2023/10/08 11:36:18;;;;;;;8.13;3.40;;;;;;;17.57;74.42;100813.63;6204956;23;20025;-87
2023/10/08 11:38:50;;;;;;;10.07;4.32;;;;;;;17.60;74.15;100809.78;6181786;23;20112;-86
2023/10/08 11:41:21;;;;;;;12.00;3.72;;;;;;;17.63;74.54;100809.50;6179263;23;20421;-87
2023/10/08 11:43:56;;;;;;;12.20;4.22;;;;;;;17.67;74.38;100810.03;6204870;23;20021;-87
2023/10/08 11:46:28;;;;;;;9.13;4.18;;;;;;;17.71;73.81;100822.16;6206261;23;20025;-86
2023/10/08 11:49:04;;;;;;;7.72;3.80;;;;;;;17.72;72.75;100821.13;6158282;23;20031;-87
2023/10/08 11:51:34;;;;;;;9.35;4.18;;;;;;;17.71;72.44;100833.72;6156448;23;20087;-87
2023/10/08 11:54:02;;;;;;;6.93;4.10;;;;;;;17.76;72.68;100835.94;6180987;23;20025;-88
2023/10/08 11:56:29;;;;;;;7.78;4.05;;;;;;;17.78;73.12;100839.28;6181174;23;20017;-87
2023/10/08 11:58:57;;;;;;;9.32;3.60;;;;;;;17.81;73.07;100836.34;6181485;23;20083;-87
2023/10/08 12:01:24;;;;;;;9.70;4.10;;;;;;;17.81;73.13;100832.78;6206713;23;20078;-87
2023/10/08 12:03:51;;;;;;;9.25;3.97;;;;;;;17.80;73.38;100826.59;6182049;23;20382;-87
2023/10/08 12:06:19;;;;;;;9.35;4.22;;;;;;;17.80;73.70;100831.97;6181218;23;20025;-86
2023/10/08 12:08:47;;;;;;;8.27;3.45;;;;;;;17.84;73.63;100836.03;6206369;23;20016;-87
2023/10/08 12:11:14;;;;;;;7.45;3.47;;;;;;;17.87;73.66;100838.38;6157289;23;20012;-86
2023/10/08 12:13:45;;;;;;;7.68;3.78;;;;;;;17.95;73.70;100851.03;6156954;23;20433;-87
2023/10/08 12:16:18;;;;;;;8.02;3.75;;;;;;;18.03;73.10;100850.22;6205597;23;20027;-87
2023/10/08 12:18:48;;;;;;;6.47;3.53;;;;;;;18.02;73.50;100841.34;6181832;23;20028;-88
2023/10/08 12:21:16;;;;;;;6.28;3.55;;;;;;;18.06;73.05;100844.53;6157418;23;20433;-87
2023/10/08 12:23:43;;;;;;;6.78;3.80;;;;;;;18.05;73.33;100843.69;6181471;23;20349;-87
2023/10/08 12:26:15;;;;;;;8.95;3.95;;;;;;;18.07;73.38;100832.78;6181367;23;20020;-87
2023/10/08 12:28:45;;;;;;;7.55;3.58;;;;;;;18.12;73.25;100836.69;6182622;23;20024;-86
2023/10/08 12:31:15;;;;;;;10.30;3.88;;;;;;;18.15;73.24;100835.53;6205759;23;20055;-87
2023/10/08 12:33:43;;;;;;;11.15;3.95;;;;;;;18.18;72.68;100827.13;6206258;23;20052;-88
2023/10/08 12:36:11;;;;;;;9.60;5.05;;;;;;;18.19;72.12;100820.72;6156577;23;22014;-87
2023/10/08 12:38:42;;;;;;;6.90;3.60;;;;;;;18.18;72.09;100819.91;6156683;23;20025;-87
2023/10/08 12:41:13;;;;;;;8.23;4.13;;;;;;;18.21;72.58;100818.72;6205909;23;20033;-87
2023/10/08 12:43:52;;;;;;;9.30;4.55;;;;;;;18.25;72.60;100811.22;6206677;23;20023;-87